Time;durP1;ratioP1;P1;durP2;ratioP2;P2;SDS_P1;SDS_P2;PMS_P1;PMS_P2;Temp;Humidity;BMP_temperature;BMP_pressure;BME280_temperature;BME280_humidity;BME280_pressure;Samples;Min_cycle;Max_cycle;Signal;HPM_P1;HPM_P2
2021/11/16 00:00:10;;;;;;;31.02;12.70;;;6.00;88.40;;;;;;5011671;28;20912;-85
2021/11/16 00:02:35;;;;;;;31.50;13.10;;;6.00;88.40;;;;;;5011739;28;20399;-85
2021/11/16 00:05:01;;;;;;;30.98;13.00;;;6.00;88.60;;;;;;5011347;28;20381;-85
2021/11/16 00:07:27;;;;;;;32.97;13.90;;;6.00;88.60;;;;;;5012052;28;20443;-85
2021/11/16 00:09:52;;;;;;;31.50;13.03;;;6.00;88.40;;;;;;5011476;28;20389;-85
2021/11/16 00:12:18;;;;;;;29.03;13.33;;;5.90;88.30;;;;;;5011974;28;20439;-85
2021/11/16 00:14:43;;;;;;;27.77;12.53;;;5.90;88.50;;;;;;5011656;28;20420;-84
2021/11/16 00:17:09;;;;;;;29.07;12.97;;;5.90;88.70;;;;;;5011856;28;20381;-85
2021/11/16 00:19:35;;;;;;;27.55;12.43;;;5.90;88.60;;;;;;5011373;28;20425;-84
2021/11/16 00:22:01;;;;;;;30.05;12.13;;;5.90;88.60;;;;;;5011862;28;20396;-85
2021/11/16 00:24:38;;;;;;;26.80;11.57;;;5.90;88.50;;;;;;5011508;28;20385;-85
2021/11/16 00:27:05;;;;;;;26.80;12.05;;;6.00;88.50;;;;;;5011766;28;20392;-85
2021/11/16 00:29:35;;;;;;;27.55;12.18;;;6.00;88.50;;;;;;4993702;28;20412;-85
2021/11/16 00:32:01;;;;;;;32.17;12.77;;;6.00;88.20;;;;;;5011393;28;20708;-85
2021/11/16 00:34:27;;;;;;;29.67;12.77;;;6.00;88.20;;;;;;4994004;28;20762;-85
2021/11/16 00:36:53;;;;;;;27.80;12.88;;;6.00;88.30;;;;;;5011356;28;20380;-85
2021/11/16 00:39:20;;;;;;;31.98;14.30;;;5.90;88.20;;;;;;5011601;28;20825;-85
2021/11/16 00:41:46;;;;;;;29.63;13.13;;;6.00;88.20;;;;;;4993356;28;20400;-85
2021/11/16 00:44:11;;;;;;;27.00;12.37;;;5.90;88.30;;;;;;5011548;28;20380;-85
2021/11/16 00:46:37;;;;;;;28.97;12.47;;;5.90;88.50;;;;;;4993725;28;20388;-85
2021/11/16 00:49:03;;;;;;;27.90;12.60;;;5.90;88.70;;;;;;5011577;28;20467;-85
2021/11/16 00:51:28;;;;;;;30.03;13.07;;;6.00;88.70;;;;;;4993549;28;20438;-85
2021/11/16 00:53:54;;;;;;;29.00;12.80;;;6.00;88.50;;;;;;4993913;28;20825;-85
2021/11/16 00:56:20;;;;;;;36.33;13.67;;;5.90;88.50;;;;;;4993601;28;20400;-84
2021/11/16 00:58:45;;;;;;;31.33;13.27;;;5.90;88.30;;;;;;5011498;28;20404;-85
2021/11/16 01:01:11;;;;;;;33.27;14.37;;;5.90;88.50;;;;;;4993267;28;20740;-85
2021/11/16 01:03:37;;;;;;;29.97;13.87;;;5.80;88.30;;;;;;5011160;28;20381;-86
2021/11/16 01:06:03;;;;;;;30.35;13.27;;;5.70;88.60;;;;;;5011123;28;20787;-84
2021/11/16 01:08:28;;;;;;;27.42;12.93;;;5.70;88.70;;;;;;5011329;28;20389;-85
2021/11/16 01:10:55;;;;;;;33.85;13.50;;;5.70;88.90;;;;;;5011300;28;20442;-85
2021/11/16 01:13:22;;;;;;;29.15;13.57;;;5.80;88.80;;;;;;5010854;28;20408;-85
2021/11/16 01:15:50;;;;;;;33.45;13.43;;;5.80;88.90;;;;;;4993585;28;20492;-85
2021/11/16 01:18:17;;;;;;;31.30;13.27;;;5.80;88.80;;;;;;4996886;28;20871;-85
2021/11/16 01:20:43;;;;;;;30.55;12.73;;;5.90;88.90;;;;;;4997252;28;20518;-85
2021/11/16 01:23:10;;;;;;;29.33;13.20;;;5.90;88.70;;;;;;5014740;28;20835;-85
2021/11/16 01:25:38;;;;;;;27.50;12.70;;;5.90;88.80;;;;;;5014925;28;20928;-85
2021/11/16 01:28:09;;;;;;;34.13;13.82;;;5.90;88.80;;;;;;5014530;28;20404;-85
2021/11/16 01:30:35;;;;;;;34.10;13.80;;;5.90;88.80;;;;;;5014626;28;20392;-85
2021/11/16 01:33:11;;;;;;;30.48;14.05;;;5.90;88.80;;;;;;5014670;28;20381;-85
2021/11/16 01:35:38;;;;;;;29.65;13.13;;;5.90;88.80;;;;;;5014422;28;20801;-85
2021/11/16 01:38:05;;;;;;;30.23;12.73;;;5.90;88.50;;;;;;4997066;28;20392;-85
2021/11/16 01:40:32;;;;;;;28.13;13.25;;;5.80;88.70;;;;;;5014218;28;20459;-85
2021/11/16 01:43:00;;;;;;;29.87;13.20;;;5.80;88.60;;;;;;5014626;28;20518;-85
2021/11/16 01:45:25;;;;;;;30.25;12.88;;;5.90;88.60;;;;;;5014271;28;20395;-85
2021/11/16 01:47:51;;;;;;;27.53;11.90;;;5.90;88.70;;;;;;5014511;28;20381;-85
2021/11/16 01:50:20;;;;;;;28.30;12.77;;;5.90;88.60;;;;;;4996575;28;20393;-85
2021/11/16 01:52:46;;;;;;;27.08;12.50;;;5.90;88.70;;;;;;5014300;28;20381;-85
2021/11/16 01:55:14;;;;;;;30.73;11.98;;;6.00;88.60;;;;;;4996499;28;20381;-85
2021/11/16 01:57:40;;;;;;;30.45;12.50;;;5.90;88.40;;;;;;4996408;28;20389;-85
2021/11/16 02:00:11;;;;;;;28.80;12.35;;;5.90;88.80;;;;;;4996675;28;20435;-85
2021/11/16 02:02:36;;;;;;;27.23;12.13;;;5.90;88.40;;;;;;5014124;28;20384;-85
2021/11/16 02:05:03;;;;;;;29.02;13.98;;;5.90;88.60;;;;;;4996598;28;20908;-85
2021/11/16 02:07:28;;;;;;;29.00;13.10;;;5.90;88.50;;;;;;5013865;28;20392;-85
2021/11/16 02:09:54;;;;;;;28.23;12.97;;;5.90;88.30;;;;;;4996449;28;20419;-85
2021/11/16 02:12:20;;;;;;;30.07;12.80;;;5.90;88.70;;;;;;4996129;28;20751;-85
2021/11/16 02:14:45;;;;;;;26.33;12.40;;;5.90;88.70;;;;;;5013967;28;20794;-85
2021/11/16 02:17:11;;;;;;;31.17;12.60;;;5.90;88.60;;;;;;5013599;28;20381;-85
2021/11/16 02:19:37;;;;;;;29.48;13.18;;;5.80;88.60;;;;;;5013880;28;20400;-85
2021/11/16 02:22:03;;;;;;;28.25;12.95;;;5.90;88.70;;;;;;5013606;28;20395;-85
2021/11/16 02:24:29;;;;;;;29.33;12.93;;;5.90;89.00;;;;;;4995967;28;20469;-85
2021/11/16 02:26:54;;;;;;;24.67;11.93;;;5.90;88.70;;;;;;5013790;28;20385;-85
2021/11/16 02:29:20;;;;;;;27.60;12.30;;;5.80;88.80;;;;;;5013574;28;20405;-85
2021/11/16 02:31:50;;;;;;;27.83;12.48;;;5.80;88.90;;;;;;4996118;28;20404;-85
2021/11/16 02:34:16;;;;;;;30.35;12.27;;;5.80;88.90;;;;;;5013418;28;20496;-85
2021/11/16 02:36:41;;;;;;;27.67;12.30;;;5.90;89.20;;;;;;5013625;28;20463;-85
2021/11/16 02:39:08;;;;;;;29.67;12.40;;;5.90;89.00;;;;;;5013217;28;20416;-85
2021/11/16 02:41:35;;;;;;;29.67;11.87;;;5.90;88.90;;;;;;4996046;28;20536;-85
2021/11/16 02:44:04;;;;;;;30.38;12.48;;;5.90;88.90;;;;;;4995560;28;20442;-85
2021/11/16 02:46:30;;;;;;;29.77;11.97;;;5.90;88.90;;;;;;5013282;28;20873;-85
2021/11/16 02:48:56;;;;;;;25.40;11.53;;;5.90;89.10;;;;;;4995284;28;20864;-85
2021/11/16 02:51:22;;;;;;;28.63;11.47;;;5.90;89.10;;;;;;5013017;28;20512;-85
2021/11/16 02:53:48;;;;;;;26.77;12.50;;;5.90;88.90;;;;;;4995601;28;20519;-85
2021/11/16 02:56:14;;;;;;;29.13;12.05;;;5.90;88.70;;;;;;5012835;28;20381;-85
2021/11/16 02:58:40;;;;;;;27.23;12.15;;;5.80;88.80;;;;;;4995560;28;20393;-85
2021/11/16 03:01:16;;;;;;;27.02;12.65;;;5.80;88.90;;;;;;4995189;28;20495;-85
2021/11/16 03:03:42;;;;;;;27.48;12.65;;;5.70;89.30;;;;;;5013148;28;20824;-85
2021/11/16 03:06:09;;;;;;;29.85;12.38;;;5.70;89.30;;;;;;4995133;28;20475;-85
2021/11/16 03:08:35;;;;;;;32.53;14.23;;;5.70;89.30;;;;;;5012585;28;20400;-85
2021/11/16 03:11:06;;;;;;;31.13;13.13;;;5.80;89.00;;;;;;5012608;28;20704;-85
2021/11/16 03:13:36;;;;;;;27.90;12.30;;;5.80;89.10;;;;;;5012974;28;20730;-85
2021/11/16 03:16:03;;;;;;;30.95;13.48;;;5.90;89.30;;;;;;5012607;28;20389;-85
2021/11/16 03:18:29;;;;;;;28.17;12.80;;;5.90;89.40;;;;;;5012729;28;20431;-84
2021/11/16 03:20:55;;;;;;;31.58;13.35;;;5.90;88.70;;;;;;5012604;28;20416;-85
2021/11/16 03:23:25;;;;;;;28.27;12.68;;;5.80;88.70;;;;;;4994812;28;20432;-85
2021/11/16 03:26:00;;;;;;;26.85;12.30;;;5.80;88.90;;;;;;5012656;28;20388;-85
2021/11/16 03:28:30;;;;;;;36.28;13.75;;;5.80;89.00;;;;;;5012366;28;20416;-85
2021/11/16 03:31:09;;;;;;;33.08;14.57;;;5.80;89.10;;;;;;5012762;28;20786;-85
2021/11/16 03:33:35;;;;;;;29.65;12.95;;;5.80;88.90;;;;;;4994588;28;20407;-85
2021/11/16 03:36:02;;;;;;;32.80;14.07;;;5.80;88.90;;;;;;5012522;28;20973;-85
2021/11/16 03:38:28;;;;;;;29.17;13.30;;;5.80;89.10;;;;;;5012443;28;20400;-85
2021/11/16 03:40:55;;;;;;;36.28;13.38;;;5.80;89.50;;;;;;5011452;28;20416;-85
2021/11/16 03:43:21;;;;;;;34.70;13.90;;;5.80;89.30;;;;;;5012109;28;20821;-85
2021/11/16 03:45:49;;;;;;;28.60;13.10;;;5.90;89.40;;;;;;5012318;28;20477;-85
2021/11/16 03:48:15;;;;;;;29.33;13.07;;;5.90;89.30;;;;;;5011995;28;20549;-85
2021/11/16 03:50:41;;;;;;;31.88;13.38;;;5.90;89.30;;;;;;4994593;28;20451;-85
2021/11/16 03:53:08;;;;;;;31.17;12.47;;;5.90;89.00;;;;;;4994407;28;20400;-85
2021/11/16 03:55:35;;;;;;;30.27;13.02;;;5.70;89.60;;;;;;5012460;28;20385;-85
2021/11/16 03:58:03;;;;;;;30.52;13.07;;;5.80;89.50;;;;;;4994064;28;20424;-85
2021/11/16 04:00:41;;;;;;;30.80;13.13;;;5.80;89.60;;;;;;4994308;28;20747;-85
2021/11/16 04:03:07;;;;;;;33.53;13.70;;;5.80;89.70;;;;;;5011748;28;20388;-85
2021/11/16 04:05:33;;;;;;;32.87;13.63;;;5.80;89.50;;;;;;5012016;28;20463;-85
2021/11/16 04:07:59;;;;;;;28.67;13.13;;;5.80;89.80;;;;;;5012008;28;20384;-85
2021/11/16 04:10:25;;;;;;;31.67;14.18;;;5.90;89.50;;;;;;4994078;28;20550;-85
2021/11/16 04:12:52;;;;;;;29.48;13.40;;;5.80;89.20;;;;;;5011893;28;20381;-85
2021/11/16 04:15:21;;;;;;;31.67;14.30;;;5.70;89.60;;;;;;4993874;28;20416;-85
2021/11/16 04:17:48;;;;;;;35.55;14.43;;;5.50;89.90;;;;;;5011740;28;20439;-85
2021/11/16 04:20:19;;;;;;;39.95;15.18;;;5.60;90.20;;;;;;5011471;28;20415;-85
2021/11/16 04:22:45;;;;;;;31.83;14.38;;;5.60;90.40;;;;;;4994057;28;20400;-85
2021/11/16 04:25:12;;;;;;;32.95;14.68;;;5.60;90.40;;;;;;4993819;28;20397;-84
2021/11/16 04:27:39;;;;;;;31.02;14.27;;;5.70;90.20;;;;;;4993926;28;20397;-86
2021/11/16 04:30:06;;;;;;;36.15;16.05;;;5.70;89.80;;;;;;5011363;28;20487;-84
2021/11/16 04:32:32;;;;;;;40.60;14.77;;;5.60;89.80;;;;;;5011603;28;20388;-85
2021/11/16 04:34:58;;;;;;;34.38;14.25;;;5.60;89.90;;;;;;5011438;28;20746;-85
2021/11/16 04:37:24;;;;;;;31.52;14.18;;;5.70;90.20;;;;;;5011375;28;20392;-85
2021/11/16 04:39:50;;;;;;;30.77;14.63;;;5.70;90.00;;;;;;5011534;28;20413;-85
2021/11/16 04:42:15;;;;;;;34.78;15.18;;;5.70;89.90;;;;;;5011283;28;20857;-85
2021/11/16 04:44:42;;;;;;;37.13;14.83;;;5.80;89.80;;;;;;5011542;28;20476;-85
2021/11/16 04:47:08;;;;;;;37.03;14.68;;;5.80;89.70;;;;;;5011242;28;20396;-85
2021/11/16 04:49:38;;;;;;;33.43;13.80;;;5.80;89.60;;;;;;4993805;28;20456;-85
2021/11/16 04:59:33;;;;;;;34.58;14.40;;;5.80;89.70;;;;;;5014985;28;20823;-85
2021/11/16 05:02:40;;;;;;;32.08;14.77;;;5.90;89.40;;;;;;5015239;28;20377;-85
2021/11/16 05:05:11;;;;;;;37.20;15.30;;;5.80;89.90;;;;;;5014908;28;20466;-85
2021/11/16 05:07:41;;;;;;;31.98;15.02;;;5.90;89.70;;;;;;5015606;28;20407;-85
2021/11/16 05:10:07;;;;;;;34.05;14.68;;;5.90;89.60;;;;;;4997127;28;20400;-85
2021/11/16 05:12:34;;;;;;;36.20;15.27;;;5.90;89.50;;;;;;5015054;28;20460;-85
2021/11/16 05:15:05;;;;;;;35.40;15.40;;;5.80;89.70;;;;;;5014776;28;20423;-85
2021/11/16 05:17:30;;;;;;;38.55;15.27;;;5.70;90.10;;;;;;5015113;28;20711;-85
2021/11/16 05:19:56;;;;;;;34.20;14.70;;;5.50;90.70;;;;;;5014655;28;20484;-85
2021/11/16 05:22:22;;;;;;;35.13;15.03;;;5.50;90.90;;;;;;5014628;28;20392;-86
2021/11/16 05:24:48;;;;;;;36.25;15.02;;;5.60;90.80;;;;;;5015272;28;20388;-85
2021/11/16 05:27:15;;;;;;;34.70;14.47;;;5.70;90.30;;;;;;5014529;28;20741;-85
2021/11/16 05:29:41;;;;;;;39.40;15.93;;;5.80;90.40;;;;;;5014488;28;20877;-85
2021/11/16 05:32:07;;;;;;;33.60;15.25;;;5.60;90.30;;;;;;5014451;28;20381;-85
2021/11/16 05:34:33;;;;;;;34.70;15.18;;;5.80;90.50;;;;;;5014723;28;20381;-85
2021/11/16 05:36:58;;;;;;;29.97;13.63;;;5.80;90.20;;;;;;5014394;28;20385;-85
2021/11/16 05:39:24;;;;;;;32.33;14.10;;;5.80;90.00;;;;;;5014606;28;20381;-85
2021/11/16 05:41:49;;;;;;;29.87;12.57;;;5.80;89.80;;;;;;5013877;28;20439;-85
2021/11/16 05:44:15;;;;;;;29.13;12.93;;;5.70;89.90;;;;;;4996855;28;20735;-85
2021/11/16 05:46:41;;;;;;;31.77;13.57;;;5.70;90.20;;;;;;4996693;28;20389;-85
2021/11/16 05:49:07;;;;;;;32.23;13.40;;;5.70;90.30;;;;;;5014283;28;20435;-85
2021/11/16 05:51:32;;;;;;;30.27;13.37;;;5.70;89.90;;;;;;5014468;28;20385;-85
2021/11/16 05:54:02;;;;;;;29.60;12.47;;;5.60;90.10;;;;;;5013778;28;20388;-85
2021/11/16 05:56:31;;;;;;;29.10;12.90;;;5.60;90.40;;;;;;5014346;28;20428;-85
2021/11/16 05:58:57;;;;;;;30.58;15.40;;;5.60;90.40;;;;;;5013354;28;20549;-84
2021/11/16 06:01:29;;;;;;;38.13;15.73;;;5.50;90.60;;;;;;4996365;28;20412;-84
2021/11/16 06:03:55;;;;;;;36.27;15.23;;;5.50;90.80;;;;;;4995365;28;20399;-85
2021/11/16 06:06:39;;;;;;;36.50;15.00;;;5.70;90.70;;;;;;4999301;28;20408;-85
2021/11/16 06:09:07;;;;;;;33.50;14.95;;;5.50;90.70;;;;;;5013932;28;20391;-85
2021/11/16 06:11:33;;;;;;;39.28;16.20;;;5.50;91.10;;;;;;5014035;28;20457;-85
2021/11/16 06:13:59;;;;;;;38.90;15.45;;;5.40;91.20;;;;;;5013533;28;20882;-85
2021/11/16 06:16:25;;;;;;;41.70;16.20;;;5.50;91.00;;;;;;5013710;28;20435;-85
2021/11/16 06:18:59;;;;;;;35.35;16.00;;;5.50;91.20;;;;;;5013833;28;20703;-85
2021/11/16 06:21:25;;;;;;;37.05;16.23;;;5.50;91.40;;;;;;5013337;28;20809;-85
2021/11/16 06:23:50;;;;;;;38.80;15.70;;;5.40;91.30;;;;;;4996207;28;20388;-84
2021/11/16 06:26:16;;;;;;;36.20;14.47;;;5.50;91.30;;;;;;5012896;28;20392;-85
2021/11/16 06:28:42;;;;;;;39.00;15.30;;;5.50;91.00;;;;;;4995906;28;20447;-85
2021/11/16 06:31:09;;;;;;;37.33;15.38;;;5.40;90.90;;;;;;4995785;28;20479;-83
2021/11/16 06:33:34;;;;;;;38.38;15.40;;;5.40;91.10;;;;;;5013749;28;20697;-85
2021/11/16 06:36:00;;;;;;;33.15;13.82;;;5.40;91.10;;;;;;4995691;28;20520;-85
2021/11/16 06:38:25;;;;;;;36.17;14.65;;;5.60;90.90;;;;;;4995953;28;20393;-85
2021/11/16 06:40:51;;;;;;;37.15;15.57;;;5.70;90.70;;;;;;5013096;28;20408;-85
2021/11/16 06:43:25;;;;;;;36.60;15.17;;;5.70;90.50;;;;;;5013198;28;20385;-85
2021/11/16 06:45:53;;;;;;;38.08;15.82;;;5.70;90.40;;;;;;5028782;28;20470;-85
2021/11/16 06:48:20;;;;;;;41.60;16.63;;;5.60;90.50;;;;;;5014217;28;20392;-85
2021/11/16 06:50:46;;;;;;;36.78;16.10;;;5.70;90.60;;;;;;5015440;28;20442;-86
2021/11/16 06:53:12;;;;;;;43.55;16.48;;;5.60;90.80;;;;;;5032782;28;20407;-85
2021/11/16 06:55:38;;;;;;;37.20;15.27;;;5.50;91.20;;;;;;5032751;28;20768;-85
2021/11/16 06:58:04;;;;;;;39.08;14.93;;;5.50;91.30;;;;;;5014974;28;20440;-85
2021/11/16 07:00:32;;;;;;;36.00;15.13;;;5.50;91.10;;;;;;5032790;28;20414;-85
2021/11/16 07:02:59;;;;;;;38.10;15.50;;;5.70;91.00;;;;;;5014854;28;20951;-85
2021/11/16 07:05:26;;;;;;;39.10;17.00;;;5.60;91.00;;;;;;5014791;28;20391;-85
2021/11/16 07:07:51;;;;;;;38.10;16.20;;;5.50;91.30;;;;;;5032341;28;20400;-85
2021/11/16 07:10:19;;;;;;;35.45;14.60;;;5.50;91.70;;;;;;5032400;28;20388;-86
2021/11/16 07:12:45;;;;;;;35.10;14.57;;;5.70;91.40;;;;;;5024151;28;20376;-86
2021/11/16 07:15:13;;;;;;;33.35;14.60;;;5.60;91.50;;;;;;4993454;28;20770;-85
2021/11/16 07:17:38;;;;;;;31.83;13.57;;;5.50;91.80;;;;;;5012060;28;20416;-85
2021/11/16 07:20:06;;;;;;;33.70;13.57;;;5.50;91.60;;;;;;5012411;28;20412;-85
2021/11/16 07:22:33;;;;;;;40.95;14.98;;;5.50;91.90;;;;;;5012676;28;20385;-86
2021/11/16 07:25:10;;;;;;;41.75;16.77;;;5.60;91.70;;;;;;4994834;28;20833;-85
2021/11/16 07:27:49;;;;;;;35.97;15.68;;;5.50;92.10;;;;;;4994676;28;20476;-85
2021/11/16 07:30:24;;;;;;;43.35;17.20;;;5.60;92.20;;;;;;5012400;28;20869;-85
2021/11/16 07:32:53;;;;;;;46.50;18.80;;;5.60;92.10;;;;;;5012571;28;20435;-86
2021/11/16 07:35:34;;;;;;;43.83;18.25;;;5.40;92.00;;;;;;5025457;28;20797;-86
2021/11/16 07:38:04;;;;;;;44.10;16.60;;;5.50;92.20;;;;;;5025036;28;20408;-85
2021/11/16 07:40:30;;;;;;;42.38;17.77;;;5.70;91.90;;;;;;5007603;28;20392;-86
2021/11/16 07:43:01;;;;;;;46.45;17.23;;;5.70;91.90;;;;;;5025111;28;20393;-86
2021/11/16 07:45:34;;;;;;;50.92;19.02;;;5.70;91.80;;;;;;5025427;28;20381;-86
2021/11/16 07:48:03;;;;;;;47.67;18.27;;;5.70;91.80;;;;;;5025048;28;20441;-86
2021/11/16 07:50:31;;;;;;;49.80;18.50;;;5.60;92.10;;;;;;5025513;28;20537;-86
2021/11/16 07:53:22;;;;;;;50.47;17.97;;;5.70;92.20;;;;;;5024851;28;20565;-86
2021/11/16 07:56:02;;;;;;;47.28;17.27;;;5.70;92.10;;;;;;5025115;28;20741;-86
2021/11/16 07:58:33;;;;;;;44.08;17.10;;;5.80;91.80;;;;;;5025209;28;20388;-85
2021/11/16 08:01:01;;;;;;;45.65;17.50;;;5.80;91.80;;;;;;5024864;28;20429;-86
2021/11/16 08:03:31;;;;;;;44.10;19.33;;;5.80;91.60;;;;;;5025030;28;20397;-85
2021/11/16 08:11:36;;;;;;;43.40;17.20;;;5.80;91.80;;;;;;5024725;28;20880;-86
2021/11/16 08:14:00;;;;;;;48.88;17.55;;;5.90;91.60;;;;;;5023674;28;20424;-86
2021/11/16 08:16:27;;;;;;;45.50;16.33;;;5.90;91.80;;;;;;5024574;28;20396;-86
2021/11/16 08:18:57;;;;;;;45.25;17.45;;;5.80;91.90;;;;;;5024228;28;20396;-86
2021/11/16 08:21:24;;;;;;;47.25;17.25;;;5.70;92.30;;;;;;5024248;28;20384;-86
2021/11/16 08:23:58;;;;;;;47.22;16.98;;;5.80;92.00;;;;;;5024504;28;20487;-86
2021/11/16 08:26:30;;;;;;;41.85;16.33;;;5.80;92.00;;;;;;5024733;28;20427;-86
2021/11/16 08:28:56;;;;;;;45.60;17.67;;;5.90;91.80;;;;;;5092604;28;20400;-86
2021/11/16 08:31:22;;;;;;;41.05;17.55;;;5.90;91.90;;;;;;5092895;28;20748;-86
2021/11/16 08:33:51;;;;;;;43.77;17.20;;;5.80;91.90;;;;;;5024388;28;20520;-86
2021/11/16 08:36:17;;;;;;;48.75;17.15;;;5.80;92.00;;;;;;5024259;28;20419;-86
2021/11/16 08:38:43;;;;;;;45.55;17.35;;;5.80;92.00;;;;;;5024602;28;20412;-86
2021/11/16 08:41:23;;;;;;;46.13;16.93;;;5.80;92.10;;;;;;5024288;28;20385;-86
2021/11/16 08:43:49;;;;;;;46.07;16.90;;;5.80;92.10;;;;;;5024607;28;20471;-86
2021/11/16 08:46:17;;;;;;;49.90;18.25;;;5.70;92.20;;;;;;5014379;28;20392;-86
2021/11/16 08:48:47;;;;;;;48.47;17.67;;;5.80;92.10;;;;;;5011340;28;20384;-86
2021/11/16 08:51:17;;;;;;;44.60;17.65;;;5.70;92.10;;;;;;5011300;28;20699;-87
2021/11/16 08:53:44;;;;;;;47.60;17.48;;;5.80;92.10;;;;;;5011129;28;20409;-86
2021/11/16 08:56:27;;;;;;;44.28;17.42;;;5.80;92.10;;;;;;5011178;28;20737;-87
2021/11/16 08:58:53;;;;;;;43.97;16.13;;;5.80;92.10;;;;;;5078957;28;20393;-86
2021/11/16 09:01:19;;;;;;;45.97;17.77;;;5.80;92.10;;;;;;5079101;28;20404;-87
2021/11/16 09:03:47;;;;;;;41.77;17.17;;;5.80;92.30;;;;;;5010967;28;20397;-86
2021/11/16 09:06:23;;;;;;;50.30;18.42;;;5.80;92.20;;;;;;5011093;28;20388;-86
2021/11/16 09:09:11;;;;;;;48.40;18.85;;;5.70;92.30;;;;;;5078681;28;20393;-86
2021/11/16 09:11:37;;;;;;;49.17;17.65;;;5.80;92.40;;;;;;5010654;28;20389;-86
2021/11/16 09:14:14;;;;;;;48.25;17.65;;;5.80;92.50;;;;;;5010842;28;20416;-86
2021/11/16 09:16:41;;;;;;;43.97;17.25;;;5.70;92.50;;;;;;5010751;28;20385;-86
2021/11/16 09:19:07;;;;;;;47.33;17.23;;;5.70;92.40;;;;;;5010936;28;20423;-86
2021/11/16 09:21:39;;;;;;;51.03;16.93;;;5.70;92.60;;;;;;5078584;28;20389;-86
2021/11/16 09:24:07;;;;;;;51.65;18.20;;;5.70;92.60;;;;;;5010865;28;20393;-86
2021/11/16 09:26:42;;;;;;;50.30;17.45;;;5.70;92.80;;;;;;5078429;28;20445;-86
2021/11/16 09:29:13;;;;;;;57.13;18.60;;;5.60;92.90;;;;;;5010870;28;20392;-86
2021/11/16 09:31:44;;;;;;;49.75;17.20;;;5.70;92.80;;;;;;5010448;28;20392;-86
2021/11/16 09:34:12;;;;;;;48.10;17.65;;;5.60;92.90;;;;;;5010402;28;20432;-86
2021/11/16 09:36:39;;;;;;;48.70;17.75;;;5.40;93.20;;;;;;5010568;28;20430;-86
2021/11/16 09:39:28;;;;;;;48.93;17.23;;;5.50;93.20;;;;;;5078154;28;20471;-85
2021/11/16 09:42:02;;;;;;;55.42;17.83;;;5.50;93.50;;;;;;5078411;28;20957;-85
2021/11/16 09:44:33;;;;;;;54.92;17.42;;;5.40;93.60;;;;;;5009949;28;20493;-85
2021/11/16 09:47:07;;;;;;;53.50;18.80;;;5.40;93.90;;;;;;5078056;28;20396;-85
2021/11/16 09:49:37;;;;;;;52.72;17.27;;;5.40;94.10;;;;;;5077898;28;20734;-85
2021/11/16 09:52:11;;;;;;;60.92;20.67;;;5.30;94.50;;;;;;5010404;28;20888;-85
2021/11/16 09:54:53;;;;;;;57.42;18.23;;;5.30;94.70;;;;;;5010216;28;20413;-85
2021/11/16 09:57:23;;;;;;;61.92;18.60;;;5.30;94.90;;;;;;5076692;28;20403;-84
2021/11/16 09:59:49;;;;;;;48.97;17.70;;;5.40;94.70;;;;;;5010103;28;20417;-84
2021/11/16 10:02:27;;;;;;;54.55;18.15;;;5.50;94.60;;;;;;5009818;28;20428;-84
2021/11/16 10:04:58;;;;;;;51.58;17.50;;;5.60;94.30;;;;;;5009986;28;20389;-84
2021/11/16 10:07:24;;;;;;;48.55;16.70;;;5.60;94.30;;;;;;5009646;28;20385;-83
2021/11/16 10:09:50;;;;;;;45.97;16.75;;;5.70;93.90;;;;;;5009844;28;20559;-83
2021/11/16 10:12:18;;;;;;;44.45;17.60;;;5.60;93.90;;;;;;5009681;28;20817;-83
2021/11/16 10:14:44;;;;;;;45.20;16.83;;;5.60;93.70;;;;;;5009525;28;20973;-83
2021/11/16 10:17:10;;;;;;;38.53;15.87;;;5.70;93.60;;;;;;5009859;28;20463;-83
2021/11/16 10:19:37;;;;;;;44.42;16.52;;;5.50;93.50;;;;;;5009044;28;20436;-83
2021/11/16 10:22:09;;;;;;;36.08;15.63;;;5.60;93.60;;;;;;5009830;28;20616;-83
2021/11/16 10:24:36;;;;;;;46.30;15.80;;;5.70;93.60;;;;;;5009464;28;20392;-83
2021/11/16 10:27:22;;;;;;;39.00;16.27;;;5.80;93.30;;;;;;5009501;28;20509;-83
2021/11/16 10:30:09;;;;;;;46.60;17.15;;;5.80;93.10;;;;;;5009121;28;20405;-83
2021/11/16 10:32:35;;;;;;;37.58;15.23;;;5.90;92.90;;;;;;5009447;28;20385;-84
2021/11/16 10:35:21;;;;;;;40.97;14.73;;;5.80;92.90;;;;;;5076811;28;20774;-83
2021/11/16 10:37:54;;;;;;;43.30;16.13;;;5.90;93.00;;;;;;5076823;28;20458;-83
2021/11/16 10:40:21;;;;;;;33.20;13.50;;;5.80;92.90;;;;;;5009408;28;20481;-83
2021/11/16 10:42:51;;;;;;;38.78;13.15;;;5.80;92.70;;;;;;5009130;28;20480;-83
2021/11/16 10:45:19;;;;;;;31.13;11.87;;;5.70;92.80;;;;;;5009350;28;20736;-83
2021/11/16 10:47:47;;;;;;;30.33;11.88;;;5.80;93.00;;;;;;5076762;28;20480;-83
2021/11/16 10:50:21;;;;;;;37.42;13.07;;;5.90;92.90;;;;;;5009059;28;20388;-83
2021/11/16 10:53:10;;;;;;;31.05;12.35;;;5.70;92.70;;;;;;5009006;28;20786;-83
2021/11/16 10:55:46;;;;;;;31.73;11.77;;;5.90;93.00;;;;;;5009075;28;20904;-84
2021/11/16 10:58:14;;;;;;;32.07;12.50;;;5.90;92.80;;;;;;5076839;28;20389;-83
2021/11/16 11:01:03;;;;;;;33.53;12.95;;;5.80;92.80;;;;;;5008830;28;20485;-84
2021/11/16 11:03:35;;;;;;;28.25;12.00;;;5.70;93.10;;;;;;5076668;28;20416;-83
2021/11/16 11:06:07;;;;;;;29.15;11.30;;;5.60;93.10;;;;;;5076343;28;20828;-83
2021/11/16 11:08:38;;;;;;;28.10;11.68;;;5.60;93.10;;;;;;5008785;28;20395;-83
2021/11/16 11:11:28;;;;;;;24.20;9.95;;;5.70;93.10;;;;;;5009293;28;20442;-83
2021/11/16 11:13:58;;;;;;;25.27;10.20;;;5.60;92.70;;;;;;5008271;28;20447;-83
2021/11/16 11:16:24;;;;;;;29.05;10.55;;;5.60;92.50;;;;;;5008895;28;20390;-83
2021/11/16 11:18:50;;;;;;;24.17;10.93;;;5.80;92.50;;;;;;5008556;28;20377;-84
2021/11/16 11:21:24;;;;;;;24.63;9.93;;;5.80;92.10;;;;;;5008836;28;20395;-83
2021/11/16 11:23:54;;;;;;;28.35;10.63;;;5.80;92.10;;;;;;5008548;28;20385;-83
2021/11/16 11:26:38;;;;;;;24.45;10.25;;;5.90;92.10;;;;;;5008781;28;20389;-84
2021/11/16 11:29:29;;;;;;;23.50;10.32;;;5.80;91.80;;;;;;5076539;28;20745;-83
2021/11/16 11:32:04;;;;;;;23.63;9.60;;;5.80;91.90;;;;;;5008664;28;20757;-83
2021/11/16 11:34:36;;;;;;;31.40;10.03;;;5.80;91.80;;;;;;5008593;28;20526;-83
2021/11/16 11:37:16;;;;;;;28.85;11.02;;;5.90;91.90;;;;;;5008057;28;20385;-83
2021/11/16 11:39:41;;;;;;;22.48;10.65;;;5.90;91.70;;;;;;5008637;28;20377;-84
2021/11/16 11:42:12;;;;;;;22.13;9.57;;;5.80;91.60;;;;;;5076024;28;20485;-84
2021/11/16 11:44:42;;;;;;;21.45;9.48;;;5.70;91.40;;;;;;5008345;28;20951;-83
2021/11/16 11:47:07;;;;;;;23.38;9.82;;;5.80;91.40;;;;;;5008206;28;20449;-83
2021/11/16 11:49:36;;;;;;;25.13;9.63;;;5.80;91.20;;;;;;5008269;28;20385;-83
2021/11/16 11:52:04;;;;;;;24.88;9.60;;;6.00;91.50;;;;;;5008500;28;20389;-83
2021/11/16 11:54:29;;;;;;;24.23;9.82;;;6.10;91.40;;;;;;5075911;28;20708;-83
2021/11/16 11:56:55;;;;;;;22.70;10.55;;;5.90;90.80;;;;;;5008438;28;20434;-84
2021/11/16 11:59:26;;;;;;;20.38;9.38;;;5.90;90.90;;;;;;5075765;28;20881;-84
2021/11/16 12:01:52;;;;;;;21.98;9.27;;;5.90;90.90;;;;;;5008273;28;20853;-84
2021/11/16 12:04:19;;;;;;;25.17;9.88;;;6.10;91.10;;;;;;5075767;28;20917;-84
2021/11/16 12:06:50;;;;;;;22.58;9.68;;;6.00;91.40;;;;;;5008053;28;20779;-84
2021/11/16 12:09:16;;;;;;;18.15;8.85;;;6.00;91.30;;;;;;5008099;28;20389;-84
2021/11/16 12:11:44;;;;;;;23.02;8.93;;;6.00;91.00;;;;;;5008036;28;20415;-84
2021/11/16 12:14:23;;;;;;;18.98;8.88;;;6.00;91.40;;;;;;5075766;28;20503;-84
2021/11/16 12:16:52;;;;;;;22.48;9.60;;;6.10;91.30;;;;;;5075660;28;20874;-84
2021/11/16 12:19:19;;;;;;;21.42;9.25;;;6.10;91.40;;;;;;5008141;28;20435;-84
2021/11/16 12:21:46;;;;;;;22.83;9.77;;;6.10;91.70;;;;;;5010409;28;20387;-84
2021/11/16 12:24:30;;;;;;;21.70;9.18;;;5.90;91.20;;;;;;5079704;28;20754;-84
2021/11/16 12:26:59;;;;;;;23.47;9.70;;;6.00;91.30;;;;;;5079546;28;20396;-84
2021/11/16 12:29:38;;;;;;;21.52;9.60;;;5.90;91.00;;;;;;5011233;28;20861;-85
2021/11/16 12:32:21;;;;;;;16.10;7.25;;;5.90;91.50;;;;;;4993766;28;20738;-83
2021/11/16 12:35:01;;;;;;;15.45;7.75;;;5.80;89.60;;;;;;5011136;28;20834;-85
2021/11/16 12:37:46;;;;;;;18.73;7.85;;;5.90;89.30;;;;;;5011346;28;20412;-85
2021/11/16 12:40:14;;;;;;;18.27;7.95;;;6.00;89.40;;;;;;4993442;28;20432;-85
2021/11/16 12:43:06;;;;;;;18.92;8.95;;;5.90;89.90;;;;;;5011339;28;20393;-85
2021/11/16 12:45:41;;;;;;;20.10;9.13;;;5.90;89.30;;;;;;5011112;28;20407;-85
2021/11/16 12:48:07;;;;;;;17.80;8.73;;;5.90;89.50;;;;;;5010939;28;20396;-85
2021/11/16 12:50:34;;;;;;;22.80;9.27;;;5.90;89.60;;;;;;5011241;28;20496;-86
2021/11/16 12:52:59;;;;;;;18.83;8.25;;;5.90;89.90;;;;;;4993373;28;20389;-84
2021/11/16 12:55:31;;;;;;;22.33;8.93;;;5.90;89.50;;;;;;5011363;28;20417;-85
2021/11/16 12:58:16;;;;;;;18.08;7.95;;;5.90;89.70;;;;;;5011233;28;20707;-85
2021/11/16 13:00:41;;;;;;;20.63;9.07;;;5.90;89.70;;;;;;4993488;28;20892;-85